| time (UTC) | temp C | wind direction | speed KPH | gust KPH | rain 1hr cm | rain 24hr cm | rain mn cm | humidity % | barometer mb |
| 20260901104534 | 18 | 81 | 3.2 | 9.7 | 0.05 | 0.15 | 0.15 | 94 | 1014.9 |
| 20260901103030 | 18 | 90 | 0.0 | 8.0 | 0.05 | 0.15 | 0.15 | 94 | 1014.9 |
| 20260901101521 | 18 | 111 | 0.0 | 3.2 | 0.03 | 0.13 | 0.13 | 94 | 1014.9 |
| 20260901100020 | 19 | 130 | 3.2 | 12.9 | 0.03 | 0.10 | 0.10 | 93 | 1014.5 |
| 20260901094522 | 19 | 116 | 1.6 | 4.8 | 0.03 | 0.10 | 0.10 | 93 | 1014.9 |
| 20260901093018 | 19 | 111 | 3.2 | 6.4 | 0.08 | 0.10 | 0.10 | 93 | 1015.0 |
| 20260901091517 | 19 | 123 | 0.0 | 0.0 | 0.10 | 0.10 | 0.10 | 93 | 1015.1 |
| 20260901090025 | 19 | 122 | 0.0 | 6.4 | 0.08 | 0.08 | 0.08 | 92 | 1015.2 |
| 20260901084514 | 19 | 129 | 3.2 | 6.4 | 0.08 | 0.08 | 0.08 | 92 | 1015.2 |
| 20260901083014 | 19 | 156 | 1.6 | 8.0 | 0.03 | 0.03 | 0.03 | 91 | 1015.4 |
| 20260901081511 | 20 | 151 | 1.6 | 6.4 | 0.00 | 0.00 | 0.00 | 91 | 1015.4 |
| 20260901080014 | 20 | 100 | 0.0 | 6.4 | 0.00 | 0.00 | 0.00 | 91 | 1015.5 |
| 20260901074510 | 20 | 126 | 1.6 | 6.4 | 0.00 | 0.00 | 0.00 | 91 | 1015.5 |
| 20260901073017 | 20 | 142 | 0.0 | 4.8 | 0.00 | 0.00 | 0.00 | 91 | 1015.9 |
| 20260901071511 | 20 | 161 | 0.0 | 0.0 | 0.00 | 0.00 | 0.00 | 91 | 1016.0 |
| 20260901070006 | 20 | 167 | 0.0 | 3.2 | 0.00 | 0.00 | 0.00 | 91 | 1016.0 |
| 20260901064506 | 20 | 167 | 1.6 | 6.4 | 0.00 | 0.00 | 0.00 | 91 | 1016.2 |
| 20260901063005 | 20 | 151 | 0.0 | 4.8 | 0.00 | 0.00 | 0.00 | 90 | 1016.3 |
| 20260901061503 | 20 | 113 | 0.0 | 8.0 | 0.00 | 0.00 | 0.00 | 90 | 1016.2 |
| 20260901060003 | 20 | 148 | 0.0 | 4.8 | 0.00 | 0.00 | 0.00 | 90 | 1016.1 |
| 20260901054502 | 20 | 188 | 1.6 | 9.7 | 0.00 | 0.00 | 0.00 | 89 | 1016.6 |
| 20260901053114 | 20 | 192 | 1.6 | 8.0 | 0.00 | 0.00 | 0.00 | 87 | 1016.6 |
| 20260901051600 | 20 | 225 | 3.2 | 11.3 | 0.00 | 0.00 | 0.00 | 85 | 1016.8 |
| 20260901050056 | 20 | 238 | 6.4 | 14.5 | 0.00 | 0.00 | 0.00 | 83 | 1016.8 |
| 20260901044557 | 20 | 175 | 1.6 | 11.3 | 0.00 | 0.00 | 0.00 | 82 | 1016.6 |
| 20260901043055 | 20 | 166 | 3.2 | 11.3 | 0.00 | 0.00 | 0.00 | 81 | 1016.6 |
| 20260901041553 | 20 | 201 | 3.2 | 11.3 | 0.00 | 0.00 | 0.00 | 80 | 1016.7 |
| 20260901040051 | 20 | 200 | 3.2 | 8.0 | 0.00 | 0.00 | 0.00 | 79 | 1016.7 |
| 20260901034552 | 21 | 173 | 3.2 | 9.7 | 0.00 | 0.00 | 0.00 | 79 | 1016.9 |
| 20260901033051 | 21 | 163 | 6.4 | 16.1 | 0.00 | 0.00 | 0.00 | 78 | 1016.7 |
| 20260901031551 | 21 | 176 | 8.0 | 14.5 | 0.00 | 0.00 | 0.00 | 78 | 1016.9 |
| 20260901030049 | 21 | 179 | 4.8 | 11.3 | 0.00 | 0.00 | 0.00 | 77 | 1017.0 |
| 20260901024549 | 21 | 179 | 4.8 | 17.7 | 0.00 | 0.00 | 0.00 | 77 | 1017.0 |
| 20260901023051 | 21 | 199 | 1.6 | 9.7 | 0.00 | 0.00 | 0.00 | 78 | 1016.9 |
| 20260901021554 | 21 | 173 | 4.8 | 12.9 | 0.00 | 0.00 | 0.00 | 78 | 1016.7 |
| 20260901020050 | 21 | 177 | 3.2 | 14.5 | 0.00 | 0.00 | 0.00 | 77 | 1016.7 |
| 20260901014549 | 21 | 180 | 6.4 | 12.9 | 0.00 | 0.00 | 0.00 | 76 | 1016.8 |
| 20260901013100 | 22 | 162 | 6.4 | 14.5 | 0.00 | 0.00 | 0.00 | 74 | 1016.9 |
| 20260901011549 | 22 | 174 | 4.8 | 11.3 | 0.00 | 0.00 | 0.00 | 73 | 1016.8 |
| 20260901010051 | 22 | 247 | 4.8 | 9.7 | 0.00 | 0.00 | 0.00 | 71 | 1016.9 |
| 20260901004554 | 22 | 196 | 4.8 | 12.9 | 0.00 | 0.20 | 0.00 | 70 | 1016.8 |
| 20260901003054 | 22 | 211 | 4.8 | 11.3 | 0.00 | 0.20 | 0.00 | 70 | 1016.7 |
| 20260901001546 | 22 | 191 | 3.2 | 12.9 | 0.00 | 0.20 | 0.00 | 70 | 1016.6 |
| 20260901000044 | 22 | 173 | 4.8 | 16.1 | 0.00 | 0.20 | 0.00 | 69 | 1016.6 |
| 20260831234544 | 23 | 197 | 1.6 | 8.0 | 0.00 | 0.20 | 0.00 | 69 | 1016.6 |
| 20260831233042 | 23 | 168 | 3.2 | 11.3 | 0.00 | 0.20 | 0.00 | 70 | 1016.6 |
| 20260831231541 | 23 | 175 | 3.2 | 11.3 | 0.00 | 0.20 | 0.00 | 71 | 1016.7 |
| 20260831230040 | 23 | 167 | 4.8 | 9.7 | 0.00 | 0.20 | 0.00 | 70 | 1016.9 |
| 20260831224540 | 23 | 171 | 1.6 | 6.4 | 0.00 | 0.20 | 0.00 | 67 | 1016.9 |
| 20260831223042 | 24 | 143 | 0.0 | 4.8 | 0.00 | 0.20 | 0.00 | 67 | 1016.9 |
| 20260831221542 | 24 | 153 | 0.0 | 8.0 | 0.00 | 0.20 | 0.00 | 66 | 1017.1 |
| 20260831220038 | 24 | 174 | 1.6 | 9.7 | 0.00 | 0.20 | 0.00 | 65 | 1017.0 |
| 20260831214537 | 24 | 172 | 3.2 | 11.3 | 0.00 | 0.20 | 0.00 | 65 | 1017.1 |
| 20260831213043 | 25 | 130 | 4.8 | 11.3 | 0.00 | 0.20 | 0.00 | 64 | 1017.1 |
| 20260831211540 | 25 | 164 | 3.2 | 8.0 | 0.00 | 0.20 | 0.00 | 63 | 1017.0 |
| 20260831210036 | 25 | 190 | 1.6 | 9.7 | 0.00 | 0.20 | 0.00 | 62 | 1016.9 |
| 20260831204536 | 25 | 208 | 4.8 | 11.3 | 0.00 | 0.20 | 0.00 | 60 | 1017.1 |
| 20260831203039 | 26 | 182 | 1.6 | 11.3 | 0.00 | 0.20 | 0.00 | 59 | 1017.1 |
| 20260831201541 | 26 | 167 | 3.2 | 9.7 | 0.00 | 0.20 | 0.00 | 60 | 1017.1 |
| 20260831200033 | 25 | 213 | 1.6 | 8.0 | 0.00 | 0.20 | 0.00 | 61 | 1017.4 |
| 20260831194610 | 25 | 236 | 3.2 | 9.7 | 0.00 | 0.20 | 0.00 | 60 | 1017.5 |
| 20260831193033 | 25 | 221 | 3.2 | 11.3 | 0.00 | 0.20 | 0.00 | 59 | 1017.6 |
| 20260831191536 | 25 | 169 | 6.4 | 9.7 | 0.00 | 0.20 | 0.00 | 59 | 1017.6 |
| 20260831190038 | 25 | 138 | 4.8 | 14.5 | 0.00 | 0.20 | 0.00 | 58 | 1018.0 |
| 20260831184536 | 25 | 122 | 3.2 | 9.7 | 0.00 | 0.20 | 0.00 | 57 | 1018.1 |
| 20260831183031 | 25 | 192 | 3.2 | 11.3 | 0.00 | 0.20 | 0.00 | 59 | 1018.2 |
| 20260831181536 | 25 | 189 | 1.6 | 11.3 | 0.00 | 0.20 | 0.00 | 57 | 1018.2 |
| 20260831180029 | 26 | 171 | 4.8 | 12.9 | 0.00 | 0.20 | 0.00 | 55 | 1018.2 |
| 20260831174536 | 26 | 183 | 4.8 | 11.3 | 0.00 | 0.20 | 0.00 | 52 | 1018.3 |
| 20260831173028 | 26 | 191 | 3.2 | 11.3 | 0.00 | 0.20 | 0.00 | 52 | 1018.7 |
| 20260831171533 | 26 | 165 | 3.2 | 12.9 | 0.00 | 0.20 | 0.00 | 53 | 1018.7 |
| 20260831170026 | 26 | 213 | 3.2 | 9.7 | 0.00 | 0.20 | 0.00 | 56 | 1019.1 |
| 20260831164525 | 26 | 190 | 3.2 | 12.9 | 0.00 | 0.20 | 0.00 | 55 | 1019.0 |
| 20260831163030 | 26 | 166 | 1.6 | 12.9 | 0.00 | 0.20 | 0.00 | 58 | 1019.2 |
| 20260831161523 | 26 | 103 | 1.6 | 8.0 | 0.00 | 0.20 | 0.00 | 57 | 1019.2 |
| 20260831160022 | 26 | 86 | 1.6 | 12.9 | 0.00 | 0.20 | 0.00 | 56 | 1019.4 |
| 20260831154530 | 26 | 112 | 6.4 | 14.5 | 0.00 | 0.20 | 0.00 | 56 | 1019.3 |
| 20260831153031 | 26 | 220 | 0.0 | 11.3 | 0.00 | 0.20 | 0.00 | 59 | 1019.4 |
| 20260831151518 | 26 | 146 | 4.8 | 11.3 | 0.00 | 0.20 | 0.00 | 59 | 1019.2 |
| 20260831150016 | 26 | 182 | 0.0 | 4.8 | 0.00 | 0.20 | 0.00 | 66 | 1019.4 |
| 20260831144511 | 25 | 117 | 0.0 | 6.4 | 0.00 | 0.20 | 0.00 | 69 | 1019.5 |
| 20260831143010 | 25 | 360 | 0.0 | 9.7 | 0.00 | 0.20 | 0.00 | 70 | 1019.5 |
| 20260831141506 | 24 | 338 | 3.2 | 9.7 | 0.00 | 0.20 | 0.00 | 71 | 1019.5 |
| 20260831140007 | 24 | 28 | 3.2 | 9.7 | 0.00 | 0.20 | 0.00 | 73 | 1019.3 |
| 20260831134601 | 23 | 63 | 1.6 | 11.3 | 0.00 | 0.20 | 0.00 | 73 | 1019.3 |
| 20260831133103 | 23 | 13 | 3.2 | 8.0 | 0.00 | 0.20 | 0.00 | 77 | 1019.3 |
| 20260831131601 | 22 | 26 | 3.2 | 8.0 | 0.00 | 0.20 | 0.00 | 80 | 1019.2 |
| 20260831130052 | 21 | 337 | 3.2 | 6.4 | 0.00 | 0.20 | 0.00 | 87 | 1019.2 |
| 20260831124553 | 20 | 344 | 3.2 | 6.4 | 0.00 | 0.20 | 0.00 | 92 | 1019.3 |
| 20260831123043 | 18 | 313 | 4.8 | 8.0 | 0.00 | 0.20 | 0.00 | 94 | 1019.2 |
| 20260831121545 | 18 | 15 | 1.6 | 4.8 | 0.00 | 0.20 | 0.00 | 95 | 1019.3 |
| 20260831120041 | 18 | 234 | 0.0 | 0.0 | 0.00 | 0.20 | 0.00 | 95 | 1019.2 |
| 20260831114550 | 17 | 237 | 0.0 | 0.0 | 0.00 | 0.20 | 0.00 | 95 | 1019.2 |
| 20260831113038 | 16 | 236 | 0.0 | 0.0 | 0.00 | 0.20 | 0.00 | 95 | 1019.1 |
| 20260831111534 | 16 | 237 | 0.0 | 0.0 | 0.00 | 0.20 | 0.00 | 95 | 1018.8 |
| 20260831110031 | 16 | 237 | 0.0 | 0.0 | 0.00 | 0.20 | 0.00 | 94 | 1018.6 |